sensor_id;sensor_type;location;lat;lon;timestamp;pressure;altitude;pressure_sealevel;temperature;humidity
14966;BME280;7577;45.226;5.798;2023-07-30T00:04:12;99088.84;;;28.48;52.97
14966;BME280;7577;45.226;5.798;2023-07-30T00:06:42;99096.19;;;28.43;53.01
14966;BME280;7577;45.226;5.798;2023-07-30T00:09:12;99098.98;;;28.43;53.00
14966;BME280;7577;45.226;5.798;2023-07-30T00:11:42;99093.15;;;28.42;53.00
14966;BME280;7577;45.226;5.798;2023-07-30T00:14:12;99096.19;;;28.43;53.00
14966;BME280;7577;45.226;5.798;2023-07-30T00:19:20;99095.20;;;28.45;52.96
14966;BME280;7577;45.226;5.798;2023-07-30T00:21:50;99095.95;;;28.42;52.97
14966;BME280;7577;45.226;5.798;2023-07-30T00:24:20;99090.14;;;28.41;52.96
14966;BME280;7577;45.226;5.798;2023-07-30T00:26:50;99079.88;;;28.39;52.92
14966;BME280;7577;45.226;5.798;2023-07-30T00:29:21;99079.06;;;28.39;52.97
14966;BME280;7577;45.226;5.798;2023-07-30T00:31:50;99077.08;;;28.39;52.94
14966;BME280;7577;45.226;5.798;2023-07-30T00:34:20;99082.48;;;28.38;52.96
14966;BME280;7577;45.226;5.798;2023-07-30T00:36:51;99083.64;;;28.37;53.02
14966;BME280;7577;45.226;5.798;2023-07-30T00:39:21;99077.83;;;28.36;53.02
14966;BME280;7577;45.226;5.798;2023-07-30T00:41:51;99079.23;;;28.36;53.04
14966;BME280;7577;45.226;5.798;2023-07-30T00:46:59;99074.07;;;28.38;53.00
14966;BME280;7577;45.226;5.798;2023-07-30T00:49:29;99078.20;;;28.35;53.02
14966;BME280;7577;45.226;5.798;2023-07-30T00:52:00;99088.01;;;28.35;53.02
14966;BME280;7577;45.226;5.798;2023-07-30T00:54:30;99082.56;;;28.32;53.02
14966;BME280;7577;45.226;5.798;2023-07-30T00:57:02;99084.79;;;28.33;53.01
14966;BME280;7577;45.226;5.798;2023-07-30T00:59:32;99084.79;;;28.33;53.02
14966;BME280;7577;45.226;5.798;2023-07-30T01:02:04;99084.17;;;28.33;53.00
14966;BME280;7577;45.226;5.798;2023-07-30T01:07:15;99082.56;;;28.32;52.96
14966;BME280;7577;45.226;5.798;2023-07-30T01:09:45;99082.56;;;28.32;52.96
14966;BME280;7577;45.226;5.798;2023-07-30T01:12:15;99085.53;;;28.30;53.09
14966;BME280;7577;45.226;5.798;2023-07-30T01:14:46;99085.53;;;28.30;53.09
14966;BME280;7577;45.226;5.798;2023-07-30T01:17:18;99088.34;;;28.30;52.98
14966;BME280;7577;45.226;5.798;2023-07-30T01:19:49;99085.53;;;28.30;52.98
14966;BME280;7577;45.226;5.798;2023-07-30T01:22:20;99090.56;;;28.30;52.96
14966;BME280;7577;45.226;5.798;2023-07-30T01:24:52;99093.16;;;28.29;52.97
14966;BME280;7577;45.226;5.798;2023-07-30T01:27:25;99084.75;;;28.29;52.98
14966;BME280;7577;45.226;5.798;2023-07-30T01:32:35;99088.34;;;28.30;52.98
14966;BME280;7577;45.226;5.798;2023-07-30T01:35:08;99086.08;;;28.26;53.02
14966;BME280;7577;45.226;5.798;2023-07-30T01:37:40;99092.70;;;28.27;52.98
14966;BME280;7577;45.226;5.798;2023-07-30T01:40:15;99090.28;;;28.26;52.99
14966;BME280;7577;45.226;5.798;2023-07-30T01:42:45;99094.27;;;28.25;53.00
14966;BME280;7577;45.226;5.798;2023-07-30T01:45:15;99099.88;;;28.25;53.01
14966;BME280;7577;45.226;5.798;2023-07-30T01:47:45;99107.45;;;28.24;52.98
14966;BME280;7577;45.226;5.798;2023-07-30T01:50:16;99106.88;;;28.25;52.97
14966;BME280;7577;45.226;5.798;2023-07-30T01:52:46;99104.24;;;28.22;52.97
14966;BME280;7577;45.226;5.798;2023-07-30T01:55:16;99106.67;;;28.24;52.96
14966;BME280;7577;45.226;5.798;2023-07-30T01:57:46;99109.84;;;28.22;52.96
14966;BME280;7577;45.226;5.798;2023-07-30T02:00:16;99103.42;;;28.22;52.97
14966;BME280;7577;45.226;5.798;2023-07-30T02:02:46;99104.61;;;28.21;52.95
14966;BME280;7577;45.226;5.798;2023-07-30T02:05:16;99102.02;;;28.22;52.94
14966;BME280;7577;45.226;5.798;2023-07-30T02:07:46;99098.19;;;28.20;52.93
14966;BME280;7577;45.226;5.798;2023-07-30T02:10:17;99100.58;;;28.18;52.98
14966;BME280;7577;45.226;5.798;2023-07-30T02:12:47;99102.80;;;28.19;52.94
14966;BME280;7577;45.226;5.798;2023-07-30T02:15:17;99093.36;;;28.17;52.97
14966;BME280;7577;45.226;5.798;2023-07-30T02:17:47;99093.57;;;28.18;52.96
14966;BME280;7577;45.226;5.798;2023-07-30T02:22:55;99090.77;;;28.18;52.97
14966;BME280;7577;45.226;5.798;2023-07-30T02:25:25;99090.94;;;28.16;52.95
14966;BME280;7577;45.226;5.798;2023-07-30T02:27:55;99090.94;;;28.16;52.94
14966;BME280;7577;45.226;5.798;2023-07-30T02:30:25;99088.71;;;28.15;52.91
14966;BME280;7577;45.226;5.798;2023-07-30T02:32:55;99085.70;;;28.14;52.93
14966;BME280;7577;45.226;5.798;2023-07-30T02:35:26;99085.13;;;28.15;52.92
14966;BME280;7577;45.226;5.798;2023-07-30T02:37:56;99090.72;;;28.15;52.89
14966;BME280;7577;45.226;5.798;2023-07-30T02:40:26;99086.89;;;28.13;52.91
14966;BME280;7577;45.226;5.798;2023-07-30T02:42:57;99082.48;;;28.12;52.91
14966;BME280;7577;45.226;5.798;2023-07-30T02:45:28;99087.47;;;28.13;52.92
14966;BME280;7577;45.226;5.798;2023-07-30T02:47:57;99090.65;;;28.11;52.91
14966;BME280;7577;45.226;5.798;2023-07-30T02:50:27;99079.19;;;28.07;52.78
14966;BME280;7577;45.226;5.798;2023-07-30T02:52:57;99079.19;;;28.07;52.78
14966;BME280;7577;45.226;5.798;2023-07-30T02:55:27;99086.61;;;28.08;52.87
14966;BME280;7577;45.226;5.798;2023-07-30T02:57:57;99088.02;;;28.08;52.84
14966;BME280;7577;45.226;5.798;2023-07-30T03:00:27;99086.61;;;28.08;52.85
14966;BME280;7577;45.226;5.798;2023-07-30T03:02:58;99090.60;;;28.08;52.82
14966;BME280;7577;45.226;5.798;2023-07-30T03:05:28;99090.02;;;28.08;52.82
14966;BME280;7577;45.226;5.798;2023-07-30T03:07:58;99093.98;;;28.07;52.82
14966;BME280;7577;45.226;5.798;2023-07-30T03:13:08;99093.41;;;28.08;52.79
14966;BME280;7577;45.226;5.798;2023-07-30T03:18:16;99092.38;;;28.06;52.77
14966;BME280;7577;45.226;5.798;2023-07-30T03:20:46;99101.76;;;28.04;52.78
14966;BME280;7577;45.226;5.798;2023-07-30T03:23:16;99099.13;;;28.02;52.77
14966;BME280;7577;45.226;5.798;2023-07-30T03:25:46;99096.32;;;28.02;52.74
14966;BME280;7577;45.226;5.798;2023-07-30T03:28:16;99099.13;;;28.02;52.74
14966;BME280;7577;45.226;5.798;2023-07-30T03:30:46;99103.48;;;27.99;52.76
14966;BME280;7577;45.226;5.798;2023-07-30T03:33:16;99106.86;;;27.98;52.77
14966;BME280;7577;45.226;5.798;2023-07-30T03:35:46;99109.08;;;27.99;52.73
14966;BME280;7577;45.226;5.798;2023-07-30T03:38:16;99103.24;;;27.98;52.75
14966;BME280;7577;45.226;5.798;2023-07-30T03:40:47;99113.66;;;27.98;52.81
14966;BME280;7577;45.226;5.798;2023-07-30T03:43:16;99114.03;;;27.96;52.80
14966;BME280;7577;45.226;5.798;2023-07-30T03:45:46;99119.63;;;27.96;52.77
14966;BME280;7577;45.226;5.798;2023-07-30T03:48:17;99121.61;;;27.95;52.81
14966;BME280;7577;45.226;5.798;2023-07-30T03:50:47;99121.19;;;27.93;52.80
14966;BME280;7577;45.226;5.798;2023-07-30T03:53:17;99125.59;;;27.94;52.78
14966;BME280;7577;45.226;5.798;2023-07-30T03:55:48;99124.36;;;27.92;52.75
14966;BME280;7577;45.226;5.798;2023-07-30T03:58:18;99119.58;;;27.93;52.75
14966;BME280;7577;45.226;5.798;2023-07-30T04:00:48;99121.19;;;27.93;52.72
14966;BME280;7577;45.226;5.798;2023-07-30T04:03:18;99129.59;;;27.93;52.68
14966;BME280;7577;45.226;5.798;2023-07-30T04:05:48;99138.36;;;27.92;52.66
14966;BME280;7577;45.226;5.798;2023-07-30T04:08:19;99138.36;;;27.92;52.67
14966;BME280;7577;45.226;5.798;2023-07-30T04:10:49;99137.33;;;27.90;52.68
14966;BME280;7577;45.226;5.798;2023-07-30T04:13:19;99132.70;;;27.88;52.69
14966;BME280;7577;45.226;5.798;2023-07-30T04:15:50;99134.11;;;27.88;52.70
14966;BME280;7577;45.226;5.798;2023-07-30T04:21:01;99147.08;;;27.87;52.67
14966;BME280;7577;45.226;5.798;2023-07-30T04:23:30;99147.08;;;27.87;52.67
14966;BME280;7577;45.226;5.798;2023-07-30T04:26:00;99149.88;;;27.87;52.61
14966;BME280;7577;45.226;5.798;2023-07-30T04:28:30;99146.05;;;27.85;52.59
14966;BME280;7577;45.226;5.798;2023-07-30T04:31:00;99151.86;;;27.86;52.49
14966;BME280;7577;45.226;5.798;2023-07-30T04:33:30;99151.86;;;27.86;52.49
14966;BME280;7577;45.226;5.798;2023-07-30T04:36:00;99155.02;;;27.85;52.60
14966;BME280;7577;45.226;5.798;2023-07-30T04:38:31;99159.22;;;27.85;52.59
14966;BME280;7577;45.226;5.798;2023-07-30T04:41:00;99159.02;;;27.84;52.88
14966;BME280;7577;45.226;5.798;2023-07-30T04:43:32;99159.02;;;27.84;52.88
14966;BME280;7577;45.226;5.798;2023-07-30T04:46:02;99157.61;;;27.84;52.60
14966;BME280;7577;45.226;5.798;2023-07-30T04:48:32;99156.83;;;27.83;52.60
14966;BME280;7577;45.226;5.798;2023-07-30T04:51:02;99156.38;;;27.81;52.64
14966;BME280;7577;45.226;5.798;2023-07-30T04:53:32;99162.58;;;27.81;52.63
14966;BME280;7577;45.226;5.798;2023-07-30T04:56:02;99155.92;;;27.79;52.68
14966;BME280;7577;45.226;5.798;2023-07-30T04:58:32;99163.70;;;27.80;52.65
14966;BME280;7577;45.226;5.798;2023-07-30T05:01:02;99164.56;;;27.80;52.63
14966;BME280;7577;45.226;5.798;2023-07-30T05:03:32;99173.51;;;27.80;52.62
14966;BME280;7577;45.226;5.798;2023-07-30T05:06:02;99174.36;;;27.80;52.59
14966;BME280;7577;45.226;5.798;2023-07-30T05:08:32;99175.52;;;27.79;52.55
14966;BME280;7577;45.226;5.798;2023-07-30T05:11:03;99171.89;;;27.79;52.58
14966;BME280;7577;45.226;5.798;2023-07-30T05:13:33;99171.31;;;27.79;52.53
14966;BME280;7577;45.226;5.798;2023-07-30T05:18:41;99163.98;;;27.81;52.48
14966;BME280;7577;45.226;5.798;2023-07-30T05:21:11;99166.66;;;27.77;52.46
14966;BME280;7577;45.226;5.798;2023-07-30T05:23:41;99170.50;;;27.79;52.43
14966;BME280;7577;45.226;5.798;2023-07-30T05:26:12;99174.57;;;27.81;52.37
14966;BME280;7577;45.226;5.798;2023-07-30T05:28:41;99163.23;;;27.74;52.38
14966;BME280;7577;45.226;5.798;2023-07-30T05:31:12;99178.56;;;27.80;52.32
14966;BME280;7577;45.226;5.798;2023-07-30T05:33:42;99174.11;;;27.79;52.28
14966;BME280;7577;45.226;5.798;2023-07-30T05:36:13;99177.70;;;27.80;52.30
14966;BME280;7577;45.226;5.798;2023-07-30T05:38:43;99178.31;;;27.79;52.28
14966;BME280;7577;45.226;5.798;2023-07-30T05:41:13;99176.09;;;27.79;52.25
14966;BME280;7577;45.226;5.798;2023-07-30T05:43:43;99179.72;;;27.79;52.25
14966;BME280;7577;45.226;5.798;2023-07-30T05:46:13;99184.49;;;27.79;52.24
14966;BME280;7577;45.226;5.798;2023-07-30T05:48:44;99183.91;;;27.79;52.25
14966;BME280;7577;45.226;5.798;2023-07-30T05:51:14;99183.91;;;27.79;52.27
14966;BME280;7577;45.226;5.798;2023-07-30T05:53:44;99188.12;;;27.79;52.27
14966;BME280;7577;45.226;5.798;2023-07-30T05:56:14;99194.88;;;27.78;52.27
14966;BME280;7577;45.226;5.798;2023-07-30T05:58:46;99192.07;;;27.78;52.25
14966;BME280;7577;45.226;5.798;2023-07-30T06:01:16;99187.88;;;27.78;52.24
14966;BME280;7577;45.226;5.798;2023-07-30T06:03:48;99188.56;;;27.81;52.22
14966;BME280;7577;45.226;5.798;2023-07-30T06:06:18;99189.52;;;27.79;52.37
14966;BME280;7577;45.226;5.798;2023-07-30T06:08:50;99192.56;;;27.80;52.20
14966;BME280;7577;45.226;5.798;2023-07-30T06:11:20;99199.89;;;27.79;51.97
14966;BME280;7577;45.226;5.798;2023-07-30T06:13:50;99199.89;;;27.79;51.97
14966;BME280;7577;45.226;5.798;2023-07-30T06:16:20;99206.55;;;27.80;52.15
14966;BME280;7577;45.226;5.798;2023-07-30T06:18:50;99206.55;;;27.80;52.13
14966;BME280;7577;45.226;5.798;2023-07-30T06:21:21;99212.38;;;27.81;52.11
14966;BME280;7577;45.226;5.798;2023-07-30T06:23:51;99222.50;;;27.80;52.15
14966;BME280;7577;45.226;5.798;2023-07-30T06:26:20;99229.17;;;27.81;52.20
14966;BME280;7577;45.226;5.798;2023-07-30T06:28:51;99233.83;;;27.83;52.16
14966;BME280;7577;45.226;5.798;2023-07-30T06:33:59;99234.25;;;27.85;52.03
14966;BME280;7577;45.226;5.798;2023-07-30T06:36:28;99228.59;;;27.82;52.01
14966;BME280;7577;45.226;5.798;2023-07-30T06:38:58;99224.97;;;27.81;51.97
14966;BME280;7577;45.226;5.798;2023-07-30T06:41:29;99230.56;;;27.81;51.94
14966;BME280;7577;45.226;5.798;2023-07-30T06:43:59;99235.22;;;27.83;51.88
14966;BME280;7577;45.226;5.798;2023-07-30T06:46:29;99236.02;;;27.84;51.86
14966;BME280;7577;45.226;5.798;2023-07-30T06:48:59;99234.41;;;27.83;51.86
14966;BME280;7577;45.226;5.798;2023-07-30T06:51:29;99237.20;;;27.83;51.85
14966;BME280;7577;45.226;5.798;2023-07-30T06:54:00;99238.02;;;27.83;51.84
14966;BME280;7577;45.226;5.798;2023-07-30T06:56:30;99230.41;;;27.84;51.84
14966;BME280;7577;45.226;5.798;2023-07-30T06:59:01;99235.44;;;27.84;51.79
14966;BME280;7577;45.226;5.798;2023-07-30T07:01:31;99229.63;;;27.83;51.80
14966;BME280;7577;45.226;5.798;2023-07-30T07:04:02;99239.03;;;27.85;51.77
14966;BME280;7577;45.226;5.798;2023-07-30T07:06:33;99234.45;;;27.86;51.71
14966;BME280;7577;45.226;5.798;2023-07-30T07:09:03;99236.47;;;27.86;51.70
14966;BME280;7577;45.226;5.798;2023-07-30T07:11:34;99221.64;;;27.85;51.71
14966;BME280;7577;45.226;5.798;2023-07-30T07:14:04;99217.45;;;27.85;51.68
14966;BME280;7577;45.226;5.798;2023-07-30T07:16:34;99210.23;;;27.84;51.71
14966;BME280;7577;45.226;5.798;2023-07-30T07:19:04;99209.05;;;27.85;51.84
14966;BME280;7577;45.226;5.798;2023-07-30T07:24:12;99201.23;;;27.85;51.76
14966;BME280;7577;45.226;5.798;2023-07-30T07:26:42;99206.61;;;27.84;52.16
14966;BME280;7577;45.226;5.798;2023-07-30T07:29:13;99210.45;;;27.85;51.73
14966;BME280;7577;45.226;5.798;2023-07-30T07:31:43;99205.05;;;27.86;51.67
14966;BME280;7577;45.226;5.798;2023-07-30T07:34:14;99206.83;;;27.85;51.64
14966;BME280;7577;45.226;5.798;2023-07-30T07:36:45;99204.84;;;27.85;51.76
14966;BME280;7577;45.226;5.798;2023-07-30T07:39:15;99208.47;;;27.86;51.71
14966;BME280;7577;45.226;5.798;2023-07-30T07:41:45;99208.68;;;27.87;51.62
14966;BME280;7577;45.226;5.798;2023-07-30T07:44:15;99210.66;;;27.86;51.61
14966;BME280;7577;45.226;5.798;2023-07-30T07:46:45;99203.90;;;27.88;51.59
14966;BME280;7577;45.226;5.798;2023-07-30T07:49:16;99205.00;;;27.83;51.83
14966;BME280;7577;45.226;5.798;2023-07-30T07:51:46;99205.00;;;27.83;51.83
14966;BME280;7577;45.226;5.798;2023-07-30T07:54:16;99209.26;;;27.86;51.66
14966;BME280;7577;45.226;5.798;2023-07-30T07:56:46;99211.11;;;27.88;51.62
14966;BME280;7577;45.226;5.798;2023-07-30T07:59:15;99205.88;;;27.87;51.67
14966;BME280;7577;45.226;5.798;2023-07-30T08:01:46;99199.09;;;27.88;51.66
14966;BME280;7577;45.226;5.798;2023-07-30T08:04:16;99202.71;;;27.88;51.69
14966;BME280;7577;45.226;5.798;2023-07-30T08:06:47;99203.29;;;27.88;51.72
14966;BME280;7577;45.226;5.798;2023-07-30T08:09:17;99199.09;;;27.88;51.70
14966;BME280;7577;45.226;5.798;2023-07-30T08:11:47;99196.66;;;27.86;51.73
14966;BME280;7577;45.226;5.798;2023-07-30T08:14:17;99199.91;;;27.88;51.62
14966;BME280;7577;45.226;5.798;2023-07-30T08:16:47;99202.50;;;27.88;51.76
14966;BME280;7577;45.226;5.798;2023-07-30T08:21:55;99191.35;;;27.91;51.78
14966;BME280;7577;45.226;5.798;2023-07-30T08:24:27;99183.69;;;27.88;51.78
14966;BME280;7577;45.226;5.798;2023-07-30T08:26:57;99195.50;;;27.88;51.77
14966;BME280;7577;45.226;5.798;2023-07-30T08:29:27;99188.50;;;27.88;51.77
14966;BME280;7577;45.226;5.798;2023-07-30T08:31:57;99184.87;;;27.87;51.82
14966;BME280;7577;45.226;5.798;2023-07-30T08:34:27;99192.70;;;27.88;51.83
14966;BME280;7577;45.226;5.798;2023-07-30T08:36:57;99187.31;;;27.88;51.86
14966;BME280;7577;45.226;5.798;2023-07-30T08:39:27;99190.11;;;27.88;51.84
14966;BME280;7577;45.226;5.798;2023-07-30T08:41:58;99183.90;;;27.89;51.79
14966;BME280;7577;45.226;5.798;2023-07-30T08:44:28;99180.68;;;27.87;51.93
14966;BME280;7577;45.226;5.798;2023-07-30T08:46:58;99191.30;;;27.88;51.83
14966;BME280;7577;45.226;5.798;2023-07-30T08:49:28;99187.10;;;27.88;51.78
14966;BME280;7577;45.226;5.798;2023-07-30T08:52:03;99177.87;;;27.87;51.74
14966;BME280;7577;45.226;5.798;2023-07-30T08:54:34;99182.50;;;27.89;51.70
14966;BME280;7577;45.226;5.798;2023-07-30T08:57:07;99181.92;;;27.89;51.67
14966;BME280;7577;45.226;5.798;2023-07-30T08:59:45;99185.30;;;27.89;51.65
14966;BME280;7577;45.226;5.798;2023-07-30T09:04:53;99182.74;;;27.90;51.71
14966;BME280;7577;45.226;5.798;2023-07-30T09:07:24;99194.89;;;27.88;51.70
14966;BME280;7577;45.226;5.798;2023-07-30T09:09:54;99188.10;;;27.89;51.66
14966;BME280;7577;45.226;5.798;2023-07-30T09:12:29;99178.30;;;27.89;51.68
14966;BME280;7577;45.226;5.798;2023-07-30T09:14:59;99180.52;;;27.89;51.69
14966;BME280;7577;45.226;5.798;2023-07-30T09:17:32;99175.73;;;27.90;51.70
14966;BME280;7577;45.226;5.798;2023-07-30T09:20:02;99175.95;;;27.91;51.69
14966;BME280;7577;45.226;5.798;2023-07-30T09:22:34;99166.73;;;27.90;51.67
14966;BME280;7577;45.226;5.798;2023-07-30T09:25:08;99169.53;;;27.90;51.72
14966;BME280;7577;45.226;5.798;2023-07-30T09:27:39;99168.13;;;27.90;51.68
14966;BME280;7577;45.226;5.798;2023-07-30T09:30:10;99167.77;;;27.92;51.66
14966;BME280;7577;45.226;5.798;2023-07-30T09:32:40;99173.16;;;27.91;51.67
14966;BME280;7577;45.226;5.798;2023-07-30T09:37:49;99173.81;;;27.94;51.71
14966;BME280;7577;45.226;5.798;2023-07-30T09:40:20;99174.77;;;27.92;51.70
14966;BME280;7577;45.226;5.798;2023-07-30T09:42:50;99173.58;;;27.93;51.68
14966;BME280;7577;45.226;5.798;2023-07-30T09:47:59;99170.62;;;27.95;51.71
14966;BME280;7577;45.226;5.798;2023-07-30T09:50:30;99174.03;;;27.95;51.66
14966;BME280;7577;45.226;5.798;2023-07-30T09:53:02;99171.80;;;27.94;51.62
14966;BME280;7577;45.226;5.798;2023-07-30T09:55:33;99172.84;;;27.96;51.63
14966;BME280;7577;45.226;5.798;2023-07-30T09:58:03;99175.27;;;27.98;51.63
14966;BME280;7577;45.226;5.798;2023-07-30T10:00:33;99168.48;;;27.98;51.62
14966;BME280;7577;45.226;5.798;2023-07-30T10:03:04;99167.66;;;27.98;51.60
14966;BME280;7577;45.226;5.798;2023-07-30T10:05:36;99166.25;;;27.98;51.59
14966;BME280;7577;45.226;5.798;2023-07-30T10:08:11;99157.85;;;27.98;51.66
14966;BME280;7577;45.226;5.798;2023-07-30T10:10:42;99164.48;;;27.99;51.64
14966;BME280;7577;45.226;5.798;2023-07-30T10:13:14;99154.47;;;27.98;51.69
14966;BME280;7577;45.226;5.798;2023-07-30T10:15:45;99160.89;;;27.99;51.70
14966;BME280;7577;45.226;5.798;2023-07-30T10:18:15;99163.70;;;27.99;51.73
14966;BME280;7577;45.226;5.798;2023-07-30T10:20:53;99160.28;;;27.99;51.70
14966;BME280;7577;45.226;5.798;2023-07-30T10:23:27;99160.52;;;28.01;51.73
14966;BME280;7577;45.226;5.798;2023-07-30T10:25:58;99139.28;;;27.99;51.74
14966;BME280;7577;45.226;5.798;2023-07-30T10:28:33;99143.27;;;27.98;51.81
14966;BME280;7577;45.226;5.798;2023-07-30T10:31:06;99151.88;;;27.99;51.78
14966;BME280;7577;45.226;5.798;2023-07-30T10:33:49;99135.08;;;27.99;51.79
14966;BME280;7577;45.226;5.798;2023-07-30T10:36:30;99145.13;;;28.01;51.76
14966;BME280;7577;45.226;5.798;2023-07-30T10:41:38;99143.77;;;28.04;51.79
14966;BME280;7577;45.226;5.798;2023-07-30T10:44:08;99135.53;;;28.02;51.72
14966;BME280;7577;45.226;5.798;2023-07-30T10:46:39;99135.53;;;28.02;51.74
14966;BME280;7577;45.226;5.798;2023-07-30T10:49:10;99145.91;;;28.01;51.74
14966;BME280;7577;45.226;5.798;2023-07-30T10:51:41;99143.33;;;28.02;51.70
14966;BME280;7577;45.226;5.798;2023-07-30T10:54:11;99134.70;;;28.01;51.69
14966;BME280;7577;45.226;5.798;2023-07-30T10:56:41;99140.68;;;27.99;51.71
14966;BME280;7577;45.226;5.798;2023-07-30T10:59:12;99145.13;;;28.01;51.65
14966;BME280;7577;45.226;5.798;2023-07-30T11:01:43;99134.70;;;28.01;51.61
14966;BME280;7577;45.226;5.798;2023-07-30T11:04:15;99138.13;;;28.01;51.60
14966;BME280;7577;45.226;5.798;2023-07-30T11:06:47;99130.95;;;28.03;51.55
14966;BME280;7577;45.226;5.798;2023-07-30T11:09:21;99126.76;;;28.03;51.51
14966;BME280;7577;45.226;5.798;2023-07-30T11:11:53;99130.34;;;28.03;51.46
14966;BME280;7577;45.226;5.798;2023-07-30T11:14:24;99130.55;;;28.04;51.42
14966;BME280;7577;45.226;5.798;2023-07-30T11:16:57;99133.97;;;28.04;51.36
14966;BME280;7577;45.226;5.798;2023-07-30T11:19:27;99131.38;;;28.05;51.30
14966;BME280;7577;45.226;5.798;2023-07-30T11:21:59;99132.78;;;28.05;51.29
14966;BME280;7577;45.226;5.798;2023-07-30T11:27:13;99131.01;;;28.07;51.22
14966;BME280;7577;45.226;5.798;2023-07-30T11:32:32;99132.98;;;28.06;51.13
14966;BME280;7577;45.226;5.798;2023-07-30T11:35:04;99131.22;;;28.08;51.04
14966;BME280;7577;45.226;5.798;2023-07-30T11:37:36;99126.59;;;28.06;51.03
14966;BME280;7577;45.226;5.798;2023-07-30T11:40:09;99131.22;;;28.08;50.94
14966;BME280;7577;45.226;5.798;2023-07-30T11:42:40;99127.84;;;28.08;50.88
14966;BME280;7577;45.226;5.798;2023-07-30T11:45:23;99129.45;;;28.09;50.80
14966;BME280;7577;45.226;5.798;2023-07-30T11:47:55;99123.84;;;28.09;50.74
14966;BME280;7577;45.226;5.798;2023-07-30T11:53:03;99125.91;;;28.12;50.59
14966;BME280;7577;45.226;5.798;2023-07-30T11:55:39;99117.66;;;28.10;50.54
14966;BME280;7577;45.226;5.798;2023-07-30T11:58:10;99121.25;;;28.10;50.49
14966;BME280;7577;45.226;5.798;2023-07-30T12:00:43;99124.42;;;28.08;50.51
14966;BME280;7577;45.226;5.798;2023-07-30T12:03:13;99116.47;;;28.11;50.41
14966;BME280;7577;45.226;5.798;2023-07-30T12:05:43;99122.08;;;28.11;50.29
14966;BME280;7577;45.226;5.798;2023-07-30T12:08:16;99115.65;;;28.10;50.22
14966;BME280;7577;45.226;5.798;2023-07-30T12:10:49;99113.67;;;28.11;50.19
14966;BME280;7577;45.226;5.798;2023-07-30T12:13:20;99116.47;;;28.11;50.14
14966;BME280;7577;45.226;5.798;2023-07-30T12:15:53;99105.27;;;28.11;50.01
14966;BME280;7577;45.226;5.798;2023-07-30T12:18:24;99107.70;;;28.12;49.92
14966;BME280;7577;45.226;5.798;2023-07-30T12:23:36;99099.88;;;28.12;49.86
14966;BME280;7577;45.226;5.798;2023-07-30T12:26:06;99111.66;;;28.11;49.66
14966;BME280;7577;45.226;5.798;2023-07-30T12:28:36;99110.70;;;28.13;49.55
14966;BME280;7577;45.226;5.798;2023-07-30T12:31:06;99101.69;;;28.13;49.40
14966;BME280;7577;45.226;5.798;2023-07-30T12:33:37;99109.30;;;28.13;49.27
14966;BME280;7577;45.226;5.798;2023-07-30T12:36:06;99099.71;;;28.14;49.20
14966;BME280;7577;45.226;5.798;2023-07-30T12:38:37;99094.92;;;28.15;49.18
14966;BME280;7577;45.226;5.798;2023-07-30T12:41:07;99107.53;;;28.15;49.07
14966;BME280;7577;45.226;5.798;2023-07-30T12:43:37;99095.13;;;28.16;48.99
14966;BME280;7577;45.226;5.798;2023-07-30T12:46:07;99100.95;;;28.17;48.83
14966;BME280;7577;45.226;5.798;2023-07-30T12:51:14;99092.00;;;28.21;48.75
14966;BME280;7577;45.226;5.798;2023-07-30T12:53:45;99096.00;;;28.20;48.60
14966;BME280;7577;45.226;5.798;2023-07-30T12:56:16;99103.22;;;28.21;48.36
14966;BME280;7577;45.226;5.798;2023-07-30T12:58:47;99092.38;;;28.19;48.43
14966;BME280;7577;45.226;5.798;2023-07-30T13:01:17;99098.43;;;28.21;48.35
14966;BME280;7577;45.226;5.798;2023-07-30T13:03:47;99098.84;;;28.23;48.30
14966;BME280;7577;45.226;5.798;2023-07-30T13:06:19;99103.05;;;28.23;48.14
14966;BME280;7577;45.226;5.798;2023-07-30T13:08:50;99094.06;;;28.24;48.21
14966;BME280;7577;45.226;5.798;2023-07-30T13:11:20;99098.47;;;28.25;48.22
14966;BME280;7577;45.226;5.798;2023-07-30T13:13:50;99093.08;;;28.26;47.97
14966;BME280;7577;45.226;5.798;2023-07-30T13:16:20;99096.33;;;28.28;48.01
14966;BME280;7577;45.226;5.798;2023-07-30T13:21:28;99095.18;;;28.32;47.90
14966;BME280;7577;45.226;5.798;2023-07-30T13:23:58;99088.17;;;28.32;47.76
14966;BME280;7577;45.226;5.798;2023-07-30T13:26:28;99091.80;;;28.33;47.76
14966;BME280;7577;45.226;5.798;2023-07-30T13:28:59;99089.41;;;28.35;47.70
14966;BME280;7577;45.226;5.798;2023-07-30T13:31:29;99095.09;;;28.38;47.58
14966;BME280;7577;45.226;5.798;2023-07-30T13:33:59;99095.09;;;28.38;47.58
14966;BME280;7577;45.226;5.798;2023-07-30T13:36:29;99087.95;;;28.41;47.55
14966;BME280;7577;45.226;5.798;2023-07-30T13:38:59;99080.53;;;28.42;47.52
14966;BME280;7577;45.226;5.798;2023-07-30T13:41:29;99094.99;;;28.44;47.45
14966;BME280;7577;45.226;5.798;2023-07-30T13:43:59;99091.20;;;28.46;47.38
14966;BME280;7577;45.226;5.798;2023-07-30T13:46:29;99079.83;;;28.49;47.27
14966;BME280;7577;45.226;5.798;2023-07-30T13:48:59;99090.91;;;28.51;47.11
14966;BME280;7577;45.226;5.798;2023-07-30T13:51:29;99069.47;;;28.53;46.99
14966;BME280;7577;45.226;5.798;2023-07-30T13:54:01;99074.33;;;28.56;46.95
14966;BME280;7577;45.226;5.798;2023-07-30T13:56:32;99073.38;;;28.58;46.82
14966;BME280;7577;45.226;5.798;2023-07-30T13:59:02;99077.99;;;28.60;46.75
14966;BME280;7577;45.226;5.798;2023-07-30T14:01:32;99076.42;;;28.62;46.73
14966;BME280;7577;45.226;5.798;2023-07-30T14:04:02;99073.03;;;28.63;46.69
14966;BME280;7577;45.226;5.798;2023-07-30T14:06:32;99078.47;;;28.65;46.64
14966;BME280;7577;45.226;5.798;2023-07-30T14:09:02;99071.30;;;28.68;46.54
14966;BME280;7577;45.226;5.798;2023-07-30T14:11:33;99069.72;;;28.70;46.42
14966;BME280;7577;45.226;5.798;2023-07-30T14:14:03;99082.99;;;28.73;46.32
14966;BME280;7577;45.226;5.798;2023-07-30T14:16:34;99076.39;;;28.75;46.23
14966;BME280;7577;45.226;5.798;2023-07-30T14:19:04;99073.21;;;28.77;46.06
14966;BME280;7577;45.226;5.798;2023-07-30T14:21:34;99081.25;;;28.78;45.91
14966;BME280;7577;45.226;5.798;2023-07-30T14:26:43;99075.50;;;28.84;45.73
14966;BME280;7577;45.226;5.798;2023-07-30T14:29:13;99078.31;;;28.84;45.84
14966;BME280;7577;45.226;5.798;2023-07-30T14:31:42;99075.53;;;28.88;45.76